createdAt,value
2023-02-22T00:00:22.465Z,16.23
2023-02-22T00:02:51.609Z,13.95
2023-02-22T00:05:20.545Z,14.95
2023-02-22T00:07:48.446Z,14.43
2023-02-22T00:10:20.190Z,15.07
2023-02-22T00:12:47.848Z,14.20
2023-02-22T00:15:15.628Z,14.57
2023-02-22T00:17:43.103Z,14.65
2023-02-22T00:20:13.976Z,13.25
2023-02-22T00:22:42.132Z,16.27
2023-02-22T00:25:09.728Z,15.65
2023-02-22T00:27:37.170Z,13.63
2023-02-22T00:30:04.776Z,14.63
2023-02-22T00:32:32.230Z,16.13
2023-02-22T00:34:59.634Z,14.48
2023-02-22T00:37:31.700Z,13.85
2023-02-22T00:39:59.095Z,12.85
2023-02-22T00:42:26.474Z,12.93
2023-02-22T00:44:53.860Z,14.38
2023-02-22T00:47:21.243Z,13.80
2023-02-22T00:49:48.672Z,12.23
2023-02-22T00:52:16.030Z,14.57
2023-02-22T00:54:44.701Z,15.30
2023-02-22T00:57:12.203Z,15.07
2023-02-22T00:59:39.615Z,16.15
2023-02-22T01:02:07.059Z,15.75
2023-02-22T01:04:34.616Z,14.00
2023-02-22T01:07:02.070Z,12.68
2023-02-22T01:09:29.444Z,13.35
2023-02-22T01:11:58.281Z,12.88
2023-02-22T01:14:26.569Z,14.10
2023-02-22T01:16:54.167Z,13.70
2023-02-22T01:19:21.859Z,13.10
2023-02-22T01:21:49.752Z,13.45
2023-02-22T01:24:17.354Z,13.80
2023-02-22T01:26:45.380Z,14.27
2023-02-22T01:29:15.283Z,12.48
2023-02-22T01:31:43.996Z,12.63
2023-02-22T01:34:12.777Z,13.05
2023-02-22T01:36:41.152Z,13.95
2023-02-22T01:39:10.136Z,12.90
2023-02-22T01:41:38.859Z,13.80
2023-02-22T01:44:21.456Z,14.48
2023-02-22T01:46:48.820Z,15.77
2023-02-22T01:49:16.304Z,12.82
2023-02-22T01:51:45.583Z,14.57
2023-02-22T01:54:15.131Z,12.93
2023-02-22T01:56:46.099Z,12.55
2023-02-22T01:59:13.503Z,13.05
2023-02-22T02:01:42.994Z,15.20
2023-02-22T02:04:13.011Z,13.27
2023-02-22T02:06:42.144Z,13.45
2023-02-22T02:09:11.654Z,12.80
2023-02-22T02:11:40.288Z,12.90
2023-02-22T02:14:08.089Z,12.32
2023-02-22T02:16:38.815Z,12.55
2023-02-22T02:19:11.623Z,12.88
2023-02-22T02:22:08.252Z,13.88
2023-02-22T02:24:59.960Z,14.77
2023-02-22T02:27:27.712Z,13.95
2023-02-22T02:30:21.874Z,14.63
2023-02-22T02:32:58.604Z,13.38
2023-02-22T02:35:30.877Z,12.13
2023-02-22T02:38:02.347Z,11.85
2023-02-22T02:40:33.386Z,13.45
2023-02-22T02:43:02.415Z,13.57
2023-02-22T02:45:31.539Z,13.38
2023-02-22T02:48:00.250Z,12.43
2023-02-22T02:50:29.300Z,13.80
2023-02-22T02:52:57.782Z,13.40
2023-02-22T02:55:25.178Z,13.93
2023-02-22T02:57:52.589Z,13.23
2023-02-22T03:00:23.139Z,12.73
2023-02-22T03:03:00.935Z,12.65
2023-02-22T03:05:39.085Z,12.10
2023-02-22T03:08:08.554Z,11.95
2023-02-22T03:10:44.148Z,11.88
2023-02-22T03:13:16.146Z,12.65
2023-02-22T03:15:47.180Z,12.50
2023-02-22T03:18:18.468Z,13.18
2023-02-22T03:20:47.672Z,12.18
2023-02-22T03:23:19.321Z,12.63
2023-02-22T03:25:49.738Z,12.75
2023-02-22T03:28:18.150Z,11.98
2023-02-22T03:30:46.483Z,11.45
2023-02-22T03:33:16.461Z,13.65
2023-02-22T03:35:45.517Z,12.20
2023-02-22T03:38:13.452Z,12.38
2023-02-22T03:40:43.289Z,15.32
2023-02-22T03:43:15.304Z,11.68
2023-02-22T03:45:43.349Z,11.15
2023-02-22T03:48:17.419Z,11.32
2023-02-22T03:50:46.192Z,12.35
2023-02-22T03:53:13.582Z,12.25
2023-02-22T03:55:40.974Z,11.85
2023-02-22T03:58:10.614Z,11.32
2023-02-22T04:00:38.054Z,10.88
2023-02-22T04:03:05.499Z,10.85
2023-02-22T04:05:32.958Z,11.18
2023-02-22T04:08:01.644Z,10.10
2023-02-22T04:10:29.050Z,11.52
2023-02-22T04:12:56.440Z,11.18
2023-02-22T04:15:24.552Z,11.82
2023-02-22T04:17:52.785Z,11.23
2023-02-22T04:20:20.616Z,10.57
2023-02-22T04:22:48.022Z,11.25
2023-02-22T04:25:16.914Z,11.68
2023-02-22T04:27:44.291Z,11.05
2023-02-22T04:30:12.396Z,12.52
2023-02-22T04:32:39.992Z,14.93
2023-02-22T04:35:08.290Z,11.32
2023-02-22T04:37:35.704Z,11.55
2023-02-22T04:40:03.709Z,11.70
2023-02-22T04:42:32.400Z,9.88
2023-02-22T04:44:59.790Z,10.95
2023-02-22T04:47:27.202Z,10.23
2023-02-22T04:49:54.585Z,10.45
2023-02-22T04:52:22.144Z,11.52
2023-02-22T04:54:50.690Z,12.18
2023-02-22T04:57:18.061Z,10.98
2023-02-22T04:59:46.761Z,11.45
2023-02-22T05:02:14.163Z,12.45
2023-02-22T05:04:41.572Z,15.63
2023-02-22T05:07:08.959Z,13.30
2023-02-22T05:09:36.336Z,12.00
2023-02-22T05:12:03.721Z,13.48
2023-02-22T05:14:31.129Z,11.07
2023-02-22T05:16:59.844Z,12.88
2023-02-22T05:19:27.244Z,12.63
2023-02-22T05:21:56.304Z,14.43
2023-02-22T05:24:23.706Z,11.07
2023-02-22T05:26:53.142Z,13.32
2023-02-22T05:29:20.832Z,13.73
2023-02-22T05:31:48.288Z,10.55
2023-02-22T05:34:17.066Z,11.30
2023-02-22T05:36:44.698Z,13.77
2023-02-22T05:39:12.252Z,15.52
2023-02-22T05:41:39.661Z,12.05
2023-02-22T05:44:07.041Z,13.43
2023-02-22T05:46:34.494Z,12.48
2023-02-22T05:49:01.878Z,13.32
2023-02-22T05:51:30.576Z,12.35
2023-02-22T05:53:57.964Z,13.25
2023-02-22T05:56:27.683Z,15.55
2023-02-22T05:58:55.552Z,13.63
2023-02-22T06:01:22.963Z,13.27
2023-02-22T06:03:50.610Z,14.15
2023-02-22T06:06:18.518Z,14.95
2023-02-22T06:08:47.942Z,12.55
2023-02-22T06:11:15.700Z,13.50
2023-02-22T06:13:43.313Z,13.32
2023-02-22T06:16:10.779Z,14.00
2023-02-22T06:18:38.238Z,13.82
2023-02-22T06:21:05.958Z,12.07
2023-02-22T06:23:33.382Z,14.15
2023-02-22T06:26:02.105Z,13.90
2023-02-22T06:28:29.500Z,12.40
2023-02-22T06:30:56.945Z,17.77
2023-02-22T06:33:24.322Z,20.80
2023-02-22T06:35:51.728Z,20.73
2023-02-22T06:38:22.641Z,25.92
2023-02-22T06:40:50.011Z,28.35
2023-02-22T06:43:18.734Z,25.73
2023-02-22T06:45:46.366Z,32.38
2023-02-22T06:48:13.860Z,32.38
2023-02-22T06:50:41.262Z,33.90
2023-02-22T06:53:09.154Z,34.58
2023-02-22T06:55:36.762Z,28.23
2023-02-22T06:58:04.782Z,35.55
2023-02-22T07:00:33.775Z,30.48
2023-02-22T07:03:01.316Z,31.02
2023-02-22T07:05:28.955Z,24.80
2023-02-22T07:07:57.345Z,26.85
2023-02-22T07:10:26.055Z,25.73
2023-02-22T07:12:53.434Z,24.50
2023-02-22T07:15:21.429Z,28.27
2023-02-22T07:17:50.160Z,25.92
2023-02-22T07:20:18.196Z,22.65
2023-02-22T07:22:45.654Z,24.25
2023-02-22T07:25:13.096Z,26.20
2023-02-22T07:27:41.407Z,27.83
2023-02-22T07:30:09.451Z,28.73
2023-02-22T07:32:36.948Z,28.27
2023-02-22T07:35:06.092Z,27.83
2023-02-22T07:37:33.462Z,28.77
2023-02-22T07:40:00.844Z,22.20
2023-02-22T07:44:47.386Z,27.50
2023-02-22T07:47:14.794Z,30.40
2023-02-22T07:49:42.175Z,27.63
2023-02-22T07:52:12.572Z,29.77
2023-02-22T07:54:39.967Z,30.58
2023-02-22T07:57:07.388Z,33.80
2023-02-22T07:59:34.761Z,29.20
2023-02-22T08:02:02.207Z,25.10
2023-02-22T08:04:29.600Z,26.33
2023-02-22T08:06:57.030Z,25.25
2023-02-22T08:09:25.732Z,22.15
2023-02-22T08:11:53.145Z,22.88
2023-02-22T08:14:20.636Z,25.42
2023-02-22T08:16:48.103Z,23.40
2023-02-22T08:19:15.506Z,23.15
2023-02-22T08:21:44.232Z,26.85
2023-02-22T08:24:11.628Z,23.70
2023-02-22T08:26:45.447Z,24.08
2023-02-22T08:29:14.213Z,24.55
2023-02-22T08:31:41.726Z,29.08
2023-02-22T08:34:09.135Z,22.73
2023-02-22T08:36:36.527Z,23.08
2023-02-22T08:39:04.040Z,20.77
2023-02-22T08:41:31.436Z,18.92
2023-02-22T08:44:02.320Z,17.70
2023-02-22T08:46:29.740Z,21.80
2023-02-22T08:48:57.126Z,22.23
2023-02-22T08:51:25.538Z,23.25
2023-02-22T08:53:54.695Z,22.05
2023-02-22T08:56:23.117Z,20.70
2023-02-22T08:58:50.491Z,25.20
2023-02-22T09:01:27.943Z,21.50
2023-02-22T09:04:00.002Z,20.05
2023-02-22T09:06:27.444Z,18.75
2023-02-22T09:08:54.870Z,24.92
2023-02-22T09:11:22.353Z,26.52
2023-02-22T09:13:49.740Z,22.00
2023-02-22T09:16:17.192Z,22.27
2023-02-22T09:18:45.889Z,19.52
2023-02-22T09:21:13.305Z,18.60
2023-02-22T09:23:41.461Z,21.98
2023-02-22T09:26:08.999Z,19.50
2023-02-22T09:28:36.391Z,21.42
2023-02-22T09:31:03.789Z,19.13
2023-02-22T09:33:31.195Z,18.02
2023-02-22T09:36:00.852Z,19.73
2023-02-22T09:38:30.076Z,18.10
2023-02-22T09:41:01.353Z,16.83
2023-02-22T09:43:35.610Z,17.58
2023-02-22T09:46:11.933Z,15.38
2023-02-22T09:48:43.116Z,14.63
2023-02-22T09:51:15.072Z,15.35
2023-02-22T09:53:45.039Z,17.83
2023-02-22T09:56:13.154Z,13.32
2023-02-22T09:58:43.216Z,14.48
2023-02-22T10:01:22.871Z,14.00
2023-02-22T10:03:52.120Z,14.80
2023-02-22T10:06:22.655Z,14.73
2023-02-22T10:08:50.679Z,14.65
2023-02-22T10:11:29.435Z,15.43
2023-02-22T10:14:01.280Z,15.98
2023-02-22T10:16:30.424Z,13.57
2023-02-22T10:19:12.137Z,15.07
2023-02-22T10:21:51.849Z,15.32
2023-02-22T10:24:26.452Z,14.00
2023-02-22T10:26:54.032Z,12.55
2023-02-22T10:29:26.573Z,14.02
2023-02-22T10:31:56.147Z,11.88
2023-02-22T10:34:25.244Z,12.95
2023-02-22T10:36:56.599Z,15.60
2023-02-22T10:39:28.031Z,11.52
2023-02-22T10:41:57.328Z,14.27
2023-02-22T10:44:24.939Z,10.53
2023-02-22T10:46:53.677Z,12.10
2023-02-22T10:49:21.931Z,11.75
2023-02-22T10:51:49.873Z,12.77
2023-02-22T10:54:26.539Z,12.73
2023-02-22T10:56:55.418Z,14.13
2023-02-22T10:59:33.958Z,11.95
2023-02-22T11:02:01.684Z,13.75
2023-02-22T11:04:29.083Z,12.57
2023-02-22T11:07:09.931Z,11.10
2023-02-22T11:09:50.089Z,12.23
2023-02-22T11:14:45.911Z,9.88
2023-02-22T11:17:17.704Z,10.70
2023-02-22T11:19:47.414Z,9.15
2023-02-22T11:22:21.008Z,9.52
2023-02-22T11:24:51.598Z,9.05
2023-02-22T11:27:33.070Z,9.20
2023-02-22T11:30:25.424Z,10.98
2023-02-22T11:32:54.638Z,8.00
2023-02-22T11:35:36.877Z,7.70
2023-02-22T11:38:11.418Z,7.82
2023-02-22T11:40:40.722Z,8.55
2023-02-22T11:43:12.004Z,8.55
2023-02-22T11:45:44.159Z,8.25
2023-02-22T11:48:19.838Z,7.38
2023-02-22T11:50:59.889Z,8.80
2023-02-22T11:53:30.678Z,7.43
2023-02-22T11:56:10.316Z,8.50
2023-02-22T11:58:42.568Z,7.43
2023-02-22T12:01:17.226Z,6.72
2023-02-22T12:03:52.721Z,6.07
2023-02-22T12:06:31.533Z,7.13
2023-02-22T12:09:07.779Z,6.20
2023-02-22T12:11:39.989Z,6.50
2023-02-22T12:14:16.163Z,6.88
2023-02-22T12:17:02.843Z,5.95
2023-02-22T12:19:32.858Z,6.68
2023-02-22T12:22:02.223Z,9.93
2023-02-22T12:24:33.300Z,5.68
2023-02-22T12:27:05.671Z,6.95
2023-02-22T12:29:37.741Z,5.43
2023-02-22T12:32:06.133Z,6.82
2023-02-22T12:34:35.864Z,7.93
2023-02-22T12:37:07.663Z,5.07
2023-02-22T12:39:52.245Z,7.53
2023-02-22T12:42:25.612Z,6.80
2023-02-22T12:44:55.209Z,6.15
2023-02-22T12:47:24.597Z,6.60
2023-02-22T12:49:53.057Z,5.93
2023-02-22T12:52:25.805Z,5.65
2023-02-22T12:54:57.023Z,5.40
2023-02-22T12:57:35.049Z,5.63
2023-02-22T13:00:04.463Z,6.15
2023-02-22T13:02:33.507Z,5.00
2023-02-22T13:05:01.531Z,6.32
2023-02-22T13:07:37.431Z,6.03
2023-02-22T13:10:15.670Z,4.82
2023-02-22T13:12:47.305Z,4.63
2023-02-22T13:15:18.924Z,4.90
2023-02-22T13:17:50.903Z,5.65
2023-02-22T13:20:19.605Z,4.75
2023-02-22T13:22:49.231Z,4.50
2023-02-22T13:25:18.993Z,4.20
2023-02-22T13:27:51.057Z,4.00
2023-02-22T13:30:21.417Z,3.90
2023-02-22T13:33:05.812Z,4.20
2023-02-22T13:35:40.327Z,3.85
2023-02-22T13:38:20.139Z,6.13
2023-02-22T13:40:53.322Z,4.35
2023-02-22T13:43:33.371Z,6.45
2023-02-22T13:46:28.619Z,4.03
2023-02-22T13:49:01.933Z,3.80
2023-02-22T13:51:47.129Z,4.47
2023-02-22T13:54:18.504Z,4.57
2023-02-22T13:56:45.964Z,4.85
2023-02-22T13:59:25.377Z,4.13
2023-02-22T14:01:54.777Z,3.55
2023-02-22T14:04:37.054Z,4.13
2023-02-22T14:07:06.204Z,3.67
2023-02-22T14:09:45.455Z,4.95
2023-02-22T14:12:45.526Z,5.70
2023-02-22T14:15:29.241Z,4.28
2023-02-22T14:17:59.304Z,3.28
2023-02-22T14:20:32.032Z,4.78
2023-02-22T14:23:14.871Z,4.25
2023-02-22T14:25:42.626Z,4.30
2023-02-22T14:28:31.385Z,4.78
2023-02-22T14:31:07.895Z,3.03
2023-02-22T14:34:04.318Z,3.53
2023-02-22T14:36:35.018Z,4.25
2023-02-22T14:39:14.921Z,3.45
2023-02-22T14:41:45.948Z,2.63
2023-02-22T14:44:14.517Z,3.20
2023-02-22T14:46:43.448Z,4.13
2023-02-22T14:49:18.712Z,2.83
2023-02-22T14:51:53.204Z,3.85
2023-02-22T14:54:25.777Z,2.95
2023-02-22T14:56:55.557Z,3.15
2023-02-22T14:59:24.023Z,4.30
2023-02-22T15:02:11.852Z,3.28
2023-02-22T15:04:43.707Z,2.85
2023-02-22T15:07:27.348Z,3.72
2023-02-22T15:10:20.456Z,4.22
2023-02-22T15:13:08.497Z,5.57
2023-02-22T15:15:37.148Z,2.90
2023-02-22T15:18:06.709Z,3.58
2023-02-22T15:20:35.752Z,2.92
2023-02-22T15:23:03.195Z,2.45
2023-02-22T15:25:31.593Z,3.13
2023-02-22T15:28:02.875Z,5.25
2023-02-22T15:30:32.541Z,3.78
2023-02-22T15:33:16.199Z,3.28
2023-02-22T15:35:43.918Z,3.88
2023-02-22T15:38:21.381Z,2.80
2023-02-22T15:40:56.516Z,3.55
2023-02-22T15:43:25.003Z,2.95
2023-02-22T15:45:52.611Z,2.83
2023-02-22T15:48:21.419Z,2.90
2023-02-22T15:51:10.553Z,2.85
2023-02-22T15:53:40.950Z,4.70
2023-02-22T15:56:11.258Z,2.70
2023-02-22T15:58:39.016Z,2.83
2023-02-22T16:01:07.354Z,6.78
2023-02-22T16:03:44.586Z,2.83
2023-02-22T16:06:13.617Z,2.63
2023-02-22T16:08:54.316Z,2.63
2023-02-22T16:11:29.638Z,2.67
2023-02-22T16:13:58.472Z,2.90
2023-02-22T16:16:30.823Z,3.38
2023-02-22T16:19:38.175Z,5.00
2023-02-22T16:22:13.337Z,3.95
2023-02-22T16:24:40.889Z,2.70
2023-02-22T16:27:17.425Z,3.15
2023-02-22T16:29:45.127Z,2.92
2023-02-22T16:32:15.275Z,3.22
2023-02-22T16:34:44.157Z,2.75
2023-02-22T16:37:23.049Z,3.67
2023-02-22T16:39:52.156Z,2.72
2023-02-22T16:42:23.984Z,2.78
2023-02-22T16:44:52.574Z,3.25
2023-02-22T16:47:20.140Z,2.60
2023-02-22T16:49:52.761Z,2.88
2023-02-22T16:52:20.965Z,3.15
2023-02-22T16:54:48.754Z,3.03
2023-02-22T16:57:19.043Z,3.30
2023-02-22T16:59:47.985Z,2.97
2023-02-22T17:02:16.055Z,2.85
2023-02-22T17:04:49.120Z,2.95
2023-02-22T17:07:20.352Z,2.70
2023-02-22T17:09:47.993Z,3.67
2023-02-22T17:12:15.384Z,3.08
2023-02-22T17:14:42.805Z,3.15
2023-02-22T17:17:11.038Z,3.63
2023-02-22T17:19:38.398Z,3.25
2023-02-22T17:22:09.088Z,3.03
2023-02-22T17:24:39.122Z,3.08
2023-02-22T17:27:06.512Z,3.13
2023-02-22T17:29:33.987Z,3.10
2023-02-22T17:32:02.358Z,3.30
2023-02-22T17:34:29.776Z,3.72
2023-02-22T17:36:57.169Z,3.08
2023-02-22T17:39:24.572Z,3.10
2023-02-22T17:41:57.518Z,4.45
2023-02-22T17:44:25.155Z,3.47
2023-02-22T17:46:52.846Z,3.55
2023-02-22T17:49:20.217Z,3.63
2023-02-22T17:51:49.490Z,3.70
2023-02-22T17:54:17.679Z,4.00
2023-02-22T17:56:45.069Z,3.92
2023-02-22T17:59:13.791Z,3.90
2023-02-22T18:01:43.777Z,4.15
2023-02-22T18:04:11.630Z,3.80
2023-02-22T18:06:39.933Z,3.80
2023-02-22T18:09:10.210Z,4.28
2023-02-22T18:11:38.250Z,5.05
2023-02-22T18:14:09.828Z,3.70
2023-02-22T18:16:39.326Z,4.72
2023-02-22T18:19:06.761Z,3.50
2023-02-22T18:21:34.329Z,3.50
2023-02-22T18:24:01.890Z,5.07
2023-02-22T18:26:29.688Z,5.72
2023-02-22T18:28:57.207Z,3.85
2023-02-22T18:31:24.635Z,3.60
2023-02-22T18:33:53.577Z,3.28
2023-02-22T18:36:22.646Z,4.22
2023-02-22T18:38:50.924Z,4.00
2023-02-22T18:41:19.236Z,4.45
2023-02-22T18:43:47.280Z,4.05
2023-02-22T18:46:16.060Z,6.22
2023-02-22T18:48:43.601Z,5.63
2023-02-22T18:51:13.863Z,4.68
2023-02-22T18:53:46.647Z,4.07
2023-02-22T18:56:15.420Z,4.88
2023-02-22T18:58:43.658Z,4.03
2023-02-22T19:01:15.556Z,4.35
2023-02-22T19:03:42.936Z,4.30
2023-02-22T19:06:11.636Z,4.95
2023-02-22T19:08:39.823Z,4.38
2023-02-22T19:11:08.610Z,3.95
2023-02-22T19:13:36.038Z,3.90
2023-02-22T19:16:03.882Z,5.57
2023-02-22T19:18:31.567Z,4.50
2023-02-22T19:20:59.021Z,5.20
2023-02-22T19:23:28.212Z,4.82
2023-02-22T19:25:55.682Z,4.33
2023-02-22T19:28:27.925Z,4.47
2023-02-22T19:30:55.377Z,4.35
2023-02-22T19:33:25.906Z,3.60
2023-02-22T19:35:53.653Z,3.92
2023-02-22T19:41:45.432Z,3.58
2023-02-22T19:44:13.053Z,4.13
2023-02-22T19:46:40.915Z,3.70
2023-02-22T19:49:08.356Z,4.65
2023-02-22T19:51:35.754Z,3.47
2023-02-22T19:54:04.668Z,3.60
2023-02-22T19:56:35.127Z,3.25
2023-02-22T19:59:09.082Z,3.85
2023-02-22T20:01:36.673Z,4.25
2023-02-22T20:04:05.317Z,4.32
2023-02-22T20:06:34.700Z,4.45
2023-02-22T20:09:02.611Z,3.85
2023-02-22T20:11:30.075Z,3.60
2023-02-22T20:14:00.519Z,3.40
2023-02-22T20:16:28.008Z,5.28
2023-02-22T20:18:55.918Z,4.20
2023-02-22T20:21:27.364Z,4.28
2023-02-22T20:23:56.989Z,4.57
2023-02-22T20:26:24.867Z,4.07
2023-02-22T20:28:52.559Z,3.92
2023-02-22T20:31:21.783Z,3.83
2023-02-22T20:33:50.215Z,3.90
2023-02-22T20:36:18.503Z,3.72
2023-02-22T20:38:45.929Z,3.70
2023-02-22T20:41:14.669Z,3.92
2023-02-22T20:43:42.052Z,4.55
2023-02-22T20:46:09.488Z,4.78
2023-02-22T20:48:38.202Z,4.30
2023-02-22T20:51:06.265Z,4.07
2023-02-22T20:53:34.387Z,3.50
2023-02-22T20:56:01.916Z,4.25
2023-02-22T20:58:29.979Z,3.60
2023-02-22T21:00:57.442Z,4.07
2023-02-22T21:03:24.828Z,4.05
2023-02-22T21:05:53.667Z,4.22
2023-02-22T21:08:21.060Z,4.43
2023-02-22T21:10:48.886Z,3.25
2023-02-22T21:13:16.425Z,5.35
2023-02-22T21:15:43.814Z,4.10
2023-02-22T21:18:11.347Z,4.00
2023-02-22T21:20:40.667Z,4.13
2023-02-22T21:23:09.522Z,4.57
2023-02-22T21:25:36.905Z,3.95
2023-02-22T21:28:04.730Z,3.85
2023-02-22T21:30:33.479Z,4.10
2023-02-22T21:33:02.175Z,4.25
2023-02-22T21:35:30.154Z,5.40
2023-02-22T21:37:57.928Z,3.90
2023-02-22T21:40:27.435Z,4.03
2023-02-22T21:42:54.808Z,4.05
2023-02-22T21:45:23.664Z,3.90
2023-02-22T21:47:54.452Z,3.88
2023-02-22T21:50:21.890Z,4.43
2023-02-22T21:52:49.429Z,3.92
2023-02-22T21:55:19.136Z,4.05
2023-02-22T21:57:47.827Z,4.10
2023-02-22T22:00:18.377Z,4.28
2023-02-22T22:02:47.843Z,4.18
2023-02-22T22:05:17.177Z,5.28
2023-02-22T22:07:44.973Z,3.63
2023-02-22T22:10:16.904Z,4.55
2023-02-22T22:12:46.033Z,4.00
2023-02-22T22:15:16.270Z,4.65
2023-02-22T22:17:43.686Z,3.80
2023-02-22T22:20:14.600Z,5.60
2023-02-22T22:22:43.388Z,3.90
2023-02-22T22:25:11.837Z,3.67
2023-02-22T22:27:39.245Z,4.50
2023-02-22T22:30:08.044Z,4.13
2023-02-22T22:32:36.792Z,4.10
2023-02-22T22:35:04.665Z,5.20
2023-02-22T22:37:32.303Z,3.90
2023-02-22T22:39:59.682Z,4.97
2023-02-22T22:42:27.082Z,3.67
2023-02-22T22:44:54.496Z,4.35
2023-02-22T22:47:22.034Z,3.90
2023-02-22T22:49:50.712Z,4.90
2023-02-22T22:52:18.941Z,4.30
2023-02-22T22:54:46.321Z,4.30
2023-02-22T22:57:14.586Z,4.18
2023-02-22T22:59:42.015Z,4.63
2023-02-22T23:02:10.857Z,6.03
2023-02-22T23:04:38.629Z,4.15
2023-02-22T23:07:07.381Z,4.32
2023-02-22T23:09:37.442Z,4.10
2023-02-22T23:12:09.411Z,6.20
2023-02-22T23:14:37.636Z,3.72
2023-02-22T23:17:05.836Z,4.20
2023-02-22T23:19:33.626Z,4.13
2023-02-22T23:22:01.415Z,4.03
2023-02-22T23:24:30.255Z,4.15
2023-02-22T23:26:59.965Z,5.43
2023-02-22T23:29:28.578Z,5.13
2023-02-22T23:31:56.117Z,4.43
2023-02-22T23:34:23.886Z,4.43
2023-02-22T23:36:54.048Z,5.32
2023-02-22T23:41:51.634Z,4.72
2023-02-22T23:46:48.773Z,6.93
2023-02-22T23:49:19.847Z,4.20
2023-02-22T23:51:47.304Z,4.90
2023-02-22T23:54:16.434Z,5.40
2023-02-22T23:56:47.053Z,4.45
2023-02-22T23:59:15.753Z,4.88
